^^
Datos históricos de la estación: Murcia-Puente Tocinos
Diario Informe para Agosto 4, 2019 Unidades:  Métrico    Ingés   Ambas
Diario Semanal Mensual Anual
  Máxima: Mínima: Promedio:
Temperatura: 13.8 °C 10.7 °C 12.5 °C
Punto de rocio: 9.1 °C 7.1 °C 8.3 °C
Humedad: 84% 67.5% 76%
Velocidad viento: 25.6km/h 0km/h 13km/h
Racha viento: 48.3km/h - -
Viento- - OSO
Presión: 1008.4 hPa 1002.9 hPa -
Precipitación: 3.1 mm    
 
 
Tabla de datos para Agosto 4, 2019
Hora Temperatura Punto de rocio Presión Viento Velocidad viento Racha viento Humedad Intensidad lluvia(por hora) Nubes
00:04 10.9 °C 7.2 °C 1008.4 hPa OSO 12 km/h 24.1 km/h 78% 0.0 mm
00:09 10.9 °C 7.2 °C 1008.4 hPa OSO 11.9 km/h 24.1 km/h 78% 0.0 mm
00:14 10.9 °C 7.4 °C 1008.3 hPa Oeste 11.9 km/h 24.1 km/h 78.9% 0.0 mm
00:19 10.8 °C 7.3 °C 1008.3 hPa Oeste 11.9 km/h 22.2 km/h 78.9% 0.0 mm
00:24 10.8 °C 7.1 °C 1008.3 hPa OSO 11.9 km/h 22.5 km/h 78.1% 0.0 mm
00:29 10.9 °C 7.2 °C 1008.0 hPa OSO 11.9 km/h 20.9 km/h 78.2% 0.0 mm
00:34 10.9 °C 7.4 °C 1008.0 hPa OSO 11.4 km/h 20.9 km/h 79% 0.0 mm
00:39 10.9 °C 7.3 °C 1008.0 hPa OSO 11.1 km/h 22 km/h 78.5% 0.0 mm
00:44 10.9 °C 7.3 °C 1007.6 hPa OSO 10 km/h 22.5 km/h 78.4% 0.0 mm
00:49 10.9 °C 7.2 °C 1007.6 hPa OSO 9.5 km/h 18.5 km/h 78% 0.0 mm
00:54 10.8 °C 7.2 °C 1007.6 hPa OSO 9.5 km/h 22.5 km/h 78% 0.0 mm
00:59 10.8 °C 7.2 °C 1007.5 hPa OSO 9.5 km/h 22.5 km/h 78.6% 0.0 mm
01:04 10.8 °C 7.2 °C 1007.5 hPa OSO 9.9 km/h 33.3 km/h 78.5% 0.0 mm
01:09 10.8 °C 7.2 °C 1007.5 hPa OSO 10 km/h 33.8 km/h 78.6% 0.0 mm
01:14 10.9 °C 7.3 °C 1007.1 hPa OSO 12.2 km/h 22.5 km/h 78.4% 0.0 mm
01:19 10.9 °C 7.2 °C 1007.1 hPa OSO 13 km/h 24.1 km/h 78% 0.0 mm
01:24 10.9 °C 7.3 °C 1007.1 hPa OSO 13 km/h 24.1 km/h 78% 0.0 mm
01:29 11 °C 7.3 °C 1007.0 hPa OSO 13 km/h 24.1 km/h 78% 0.0 mm
01:34 11.1 °C 7.3 °C 1007.0 hPa OSO 13 km/h 24.5 km/h 77.7% 0.0 mm
01:39 11.1 °C 7.2 °C 1007.0 hPa OSO 13 km/h 28.2 km/h 77% 0.0 mm
01:44 11.1 °C 7.2 °C 1006.8 hPa OSO 13.8 km/h 27.8 km/h 77% 0.0 mm
01:49 11.2 °C 7.3 °C 1006.8 hPa OSO 14 km/h 22.5 km/h 77% 0.0 mm
01:54 11.2 °C 7.3 °C 1006.8 hPa OSO 12.7 km/h 29.1 km/h 77% 0.0 mm
01:59 11.2 °C 7.3 °C 1006.4 hPa OSO 12.2 km/h 31.5 km/h 77% 0.0 mm
02:04 11.1 °C 7.2 °C 1006.4 hPa OSO 15.4 km/h 32.2 km/h 77% 0.0 mm
02:09 11.1 °C 7.2 °C 1006.4 hPa OSO 16.4 km/h 28.2 km/h 77% 0.0 mm
02:14 11.1 °C 7.2 °C 1005.9 hPa OSO 14.4 km/h 29.6 km/h 77% 0.0 mm
02:19 11.1 °C 7.2 °C 1005.9 hPa OSO 13.7 km/h 29 km/h 77% 0.0 mm
02:24 11.1 °C 7.4 °C 1005.9 hPa OSO 13.9 km/h 33.3 km/h 77.8% 0.2 mm
02:29 11 °C 7.4 °C 1005.9 hPa OSO 14 km/h 33.8 km/h 78.3% 0.2 mm
02:34 10.9 °C 7.4 °C 1005.9 hPa OSO 15.2 km/h 27.4 km/h 79.2% 0.2 mm
02:39 10.8 °C 7.6 °C 1005.9 hPa OSO 15.6 km/h 28.2 km/h 80.5% 0.2 mm
02:44 10.7 °C 7.7 °C 1005.6 hPa OSO 14.2 km/h 29.8 km/h 81.6% 0.2 mm
02:49 10.7 °C 7.8 °C 1005.6 hPa OSO 13.7 km/h 30.6 km/h 82% 0.2 mm
02:54 10.7 °C 7.9 °C 1005.6 hPa OSO 16.3 km/h 29.6 km/h 82.7% 0.2 mm
02:59 10.7 °C 8 °C 1005.5 hPa OSO 17.2 km/h 33.3 km/h 83% 0.2 mm
03:04 10.8 °C 8 °C 1005.5 hPa SO 16 km/h 33.8 km/h 83% 0.2 mm
03:09 10.8 °C 8 °C 1005.5 hPa SO 15.6 km/h 27.8 km/h 83.3% 0.2 mm
03:14 10.7 °C 8.1 °C 1005.3 hPa SO 12.9 km/h 27.4 km/h 84% 0.2 mm
03:19 10.7 °C 8.2 °C 1005.3 hPa SO 11.9 km/h 27 km/h 84% 0.2 mm
03:24 10.8 °C 8.2 °C 1005.3 hPa SO 10.5 km/h 27.8 km/h 84% 0.2 mm
03:29 10.8 °C 8.2 °C 1005.1 hPa SO 10 km/h 18 km/h 84% 0.0 mm
03:34 10.8 °C 8.2 °C 1005.1 hPa SO 9 km/h 20.9 km/h 84% 0.0 mm
03:39 10.8 °C 8.2 °C 1005.1 hPa SO 8.7 km/h 20.9 km/h 84% 0.0 mm
03:44 10.8 °C 8.2 °C 1004.8 hPa SO 9.7 km/h 20.9 km/h 84% 0.0 mm
03:49 10.8 °C 8.2 °C 1004.8 hPa OSO 10 km/h 14.8 km/h 84% 0.0 mm
03:54 10.9 °C 8.3 °C 1004.8 hPa SO 8.8 km/h 16.1 km/h 84% 0.0 mm
03:59 10.9 °C 8.3 °C 1004.6 hPa SO 8.4 km/h 16.1 km/h 84% 0.0 mm
04:04 10.9 °C 8.3 °C 1004.6 hPa SO 7.8 km/h 14.8 km/h 84% 0.0 mm
04:09 11.1 °C 8.5 °C 1004.6 hPa OSO 7.6 km/h 20.4 km/h 84% 0.0 mm
04:14 11.2 °C 8.4 °C 1004.2 hPa OSO 8.4 km/h 20.9 km/h 83.3% 0.0 mm
04:19 11.3 °C 8.3 °C 1004.2 hPa Oeste 8.7 km/h 28.6 km/h 81.4% 0.0 mm
04:24 11.7 °C 8.1 °C 1004.2 hPa Oeste 12.5 km/h 38.9 km/h 79.1% 0.0 mm
04:29 11.8 °C 8.1 °C 1004.1 hPa Oeste 14 km/h 38.6 km/h 77.7% 0.0 mm
04:34 11.9 °C 8 °C 1004.1 hPa Oeste 16.9 km/h 33.5 km/h 77% 0.0 mm
04:39 11.9 °C 7.9 °C 1004.1 hPa Oeste 18 km/h 43.1 km/h 76.4% 0.0 mm
04:44 12.1 °C 8 °C 1004.0 hPa ONO 20.7 km/h 43.5 km/h 76% 0.0 mm
04:49 12.1 °C 7.9 °C 1004.0 hPa Oeste 21.7 km/h 37 km/h 75.3% 0.0 mm
04:54 12.2 °C 7.9 °C 1004.0 hPa Oeste 21.2 km/h 40.7 km/h 75% 0.5 mm
04:59 12.2 °C 7.8 °C 1003.7 hPa ONO 20.9 km/h 48.1 km/h 74.4% 0.5 mm
05:04 12.3 °C 7.8 °C 1003.7 hPa ONO 24.5 km/h 48.3 km/h 74% 0.5 mm
05:09 12.2 °C 7.7 °C 1003.7 hPa ONO 25.6 km/h 38.9 km/h 74% 0.5 mm
05:14 12.3 °C 7.8 °C 1003.7 hPa ONO 24.2 km/h 38.6 km/h 74% 0.5 mm
05:19 12.3 °C 7.8 °C 1003.7 hPa ONO 23.7 km/h 46.8 km/h 74% 0.5 mm
05:24 12.3 °C 7.8 °C 1003.7 hPa ONO 23.7 km/h 46.7 km/h 74% 0.5 mm
05:29 12.3 °C 7.8 °C 1003.6 hPa Oeste 23.7 km/h 43.5 km/h 74% 0.5 mm
05:34 12.3 °C 7.8 °C 1003.6 hPa ONO 25.1 km/h 41.2 km/h 74% 0.5 mm
05:39 12.3 °C 7.8 °C 1003.6 hPa Oeste 25.6 km/h 41.8 km/h 74% 0.5 mm
05:44 12.3 °C 7.8 °C 1003.4 hPa Oeste 23 km/h 35.4 km/h 74% 0.5 mm
05:49 12.3 °C 7.8 °C 1003.4 hPa ONO 22.1 km/h 46.8 km/h 74% 0.5 mm
05:54 12.3 °C 7.8 °C 1003.4 hPa Oeste 23 km/h 46.7 km/h 74% 0.5 mm
05:59 12.3 °C 7.9 °C 1003.2 hPa ONO 23.3 km/h 43.5 km/h 74.3% 0.0 mm
06:04 12.2 °C 8 °C 1003.2 hPa ONO 21.5 km/h 40.2 km/h 75.6% 0.3 mm
06:09 12 °C 8.1 °C 1003.2 hPa ONO 20.9 km/h 38.6 km/h 77.1% 0.5 mm
06:14 11.8 °C 8.1 °C 1003.2 hPa ONO 20.1 km/h 33.8 km/h 78% 0.5 mm
06:19 11.8 °C 8.1 °C 1003.2 hPa Oeste 19.8 km/h 31.7 km/h 78.4% 0.5 mm
06:24 11.7 °C 8.1 °C 1003.2 hPa ONO 19.8 km/h 34.3 km/h 78.1% 0.8 mm
06:29 11.7 °C 8.2 °C 1003.1 hPa ONO 19.8 km/h 35.2 km/h 78.9% 0.8 mm
06:34 11.7 °C 8.2 °C 1003.1 hPa ONO 21.2 km/h 35.4 km/h 79% 0.8 mm
06:39 11.7 °C 8.1 °C 1003.2 hPa ONO 21.7 km/h 40.7 km/h 78.6% 1.0 mm
06:44 11.8 °C 8.1 °C 1003.2 hPa Oeste 22 km/h 40.2 km/h 78% 1.0 mm
06:49 11.8 °C 8.1 °C 1003.2 hPa ONO 22.1 km/h 42.6 km/h 78% 1.0 mm
06:54 11.9 °C 8 °C 1003.2 hPa ONO 22.4 km/h 41.8 km/h 77.3% 1.3 mm
06:59 12 °C 8.1 °C 1003.1 hPa ONO 22.5 km/h 38.9 km/h 77% 1.3 mm
07:04 12.1 °C 8.2 °C 1003.1 hPa ONO 22.5 km/h 40.7 km/h 77% 1.3 mm
07:09 12.1 °C 8.1 °C 1003.1 hPa ONO 22.5 km/h 40.2 km/h 76.8% 1.0 mm
07:14 12.2 °C 8 °C 1003.0 hPa ONO 23.4 km/h 48.1 km/h 75.8% 0.8 mm
07:19 12.3 °C 8 °C 1003.0 hPa ONO 23.7 km/h 48.3 km/h 75% 0.8 mm
07:24 12.3 °C 8.1 °C 1003.0 hPa ONO 23.7 km/h 38.9 km/h 75.8% 0.8 mm
07:29 12.3 °C 8 °C 1003.0 hPa ONO 23.7 km/h 38.6 km/h 75.1% 0.5 mm
07:34 12.4 °C 8 °C 1003.0 hPa ONO 22.8 km/h 38.9 km/h 74.5% 0.5 mm
07:39 12.4 °C 7.9 °C 1003.0 hPa ONO 22.5 km/h 38.6 km/h 74% 0.3 mm
07:44 12.6 °C 8 °C 1003.0 hPa ONO 22.5 km/h 35.9 km/h 73.7% 0.3 mm
07:49 12.6 °C 7.9 °C 1003.0 hPa ONO 22.5 km/h 35.4 km/h 73% 0.3 mm
07:54 12.6 °C 7.9 °C 1003.0 hPa ONO 21.9 km/h 33.5 km/h 73% 0.0 mm
07:59 12.6 °C 7.9 °C 1002.9 hPa Oeste 21.7 km/h 34.6 km/h 73% 0.0 mm
08:04 12.6 °C 7.9 °C 1002.9 hPa ONO 19.2 km/h 35.4 km/h 73% 0.0 mm
08:09 12.7 °C 7.8 °C 1002.9 hPa ONO 18.4 km/h 38.9 km/h 72.1% 0.0 mm
08:14 12.7 °C 7.8 °C 1002.9 hPa Oeste 19.6 km/h 38.6 km/h 72% 0.0 mm
08:19 12.7 °C 7.8 °C 1002.9 hPa Oeste 20.1 km/h 33.8 km/h 72% 0.0 mm
08:24 12.8 °C 7.7 °C 1002.9 hPa Oeste 20.7 km/h 37 km/h 71.3% 0.0 mm
08:29 12.8 °C 7.7 °C 1002.9 hPa ONO 20.9 km/h 37 km/h 71% 0.0 mm
08:34 12.8 °C 7.7 °C 1002.9 hPa ONO 20.1 km/h 33.3 km/h 71% 0.0 mm
08:39 12.8 °C 7.7 °C 1003.1 hPa ONO 19.8 km/h 33.8 km/h 71% 0.0 mm
08:44 12.9 °C 7.6 °C 1003.1 hPa ONO 18.5 km/h 33.8 km/h 70.2% 0.0 mm
08:49 12.9 °C 7.6 °C 1003.1 hPa ONO 18 km/h 32.3 km/h 70% 0.0 mm
08:54 13 °C 7.6 °C 1003.2 hPa ONO 19.3 km/h 42.6 km/h 69.8% 0.0 mm
08:59 13.1 °C 7.6 °C 1003.2 hPa ONO 19.8 km/h 41.8 km/h 69% 0.0 mm
09:04 13.2 °C 7.6 °C 1003.2 hPa ONO 21.3 km/h 40.7 km/h 69% 0.0 mm
09:09 13.2 °C 7.6 °C 1003.4 hPa ONO 21.7 km/h 32.2 km/h 69% 0.0 mm
09:14 13.2 °C 7.6 °C 1003.4 hPa Oeste 18.4 km/h 35.2 km/h 69% 0.0 mm
09:19 13.3 °C 7.5 °C 1003.4 hPa Oeste 17.2 km/h 40.2 km/h 68% 0.0 mm
09:24 13.3 °C 7.6 °C 1003.5 hPa Oeste 18 km/h 40.2 km/h 68.5% 0.0 mm
09:29 13.2 °C 7.6 °C 1003.5 hPa ONO 18.4 km/h 35.9 km/h 68.6% 0.0 mm
09:34 13.2 °C 7.6 °C 1003.5 hPa ONO 18.4 km/h 35.4 km/h 69.1% 0.0 mm
09:39 13.2 °C 7.8 °C 1003.6 hPa ONO 18.4 km/h 27.4 km/h 70% 0.0 mm
09:44 13.2 °C 7.7 °C 1003.6 hPa ONO 14.4 km/h 35.2 km/h 69.4% 0.0 mm
09:49 13.3 °C 7.6 °C 1003.6 hPa Oeste 13 km/h 35.4 km/h 68.3% 0.0 mm
09:54 13.3 °C 7.4 °C 1003.9 hPa ONO 18.2 km/h 38.9 km/h 67.5% 0.0 mm
09:59 13.4 °C 7.6 °C 1003.9 hPa Oeste 20.1 km/h 38.6 km/h 68% 0.0 mm
10:04 13.3 °C 7.5 °C 1003.9 hPa Oeste 17.9 km/h 30.6 km/h 68.1% 0.0 mm
10:09 13.2 °C 7.6 °C 1004.2 hPa Oeste 17.2 km/h 30.6 km/h 68.8% 0.0 mm
10:14 13.2 °C 7.6 °C 1004.2 hPa ONO 17.2 km/h 31.7 km/h 68.7% 0.0 mm
10:19 13.2 °C 7.6 °C 1004.2 hPa ONO 17.2 km/h 32.2 km/h 68.8% 0.0 mm
10:24 13.2 °C 7.6 °C 1004.4 hPa ONO 17.8 km/h 31.7 km/h 69% 0.0 mm
10:29 13.2 °C 7.6 °C 1004.4 hPa ONO 18 km/h 32.2 km/h 69% 0.0 mm
10:34 13.2 °C 7.6 °C 1004.4 hPa Oeste 17.5 km/h 28.2 km/h 69% 0.0 mm
10:39 13.2 °C 7.7 °C 1004.6 hPa ONO 17.2 km/h 29.8 km/h 69.3% 0.0 mm
10:44 13.1 °C 7.7 °C 1004.6 hPa ONO 16.4 km/h 30.6 km/h 69.7% 0.0 mm
10:49 13.1 °C 7.7 °C 1004.6 hPa ONO 16.1 km/h 29 km/h 70% 0.0 mm
10:54 13 °C 7.8 °C 1004.7 hPa ONO 16.1 km/h 31.5 km/h 70.3% 0.0 mm
10:59 12.9 °C 7.8 °C 1004.7 hPa ONO 16.1 km/h 32.2 km/h 71.2% 0.0 mm
11:04 12.8 °C 8 °C 1004.7 hPa ONO 17.6 km/h 32.2 km/h 72.5% 0.0 mm
11:09 12.7 °C 8.1 °C 1004.8 hPa ONO 18 km/h 32.2 km/h 73.5% 0.0 mm
11:14 12.7 °C 8.2 °C 1004.8 hPa ONO 16.9 km/h 26.2 km/h 74.2% 0.0 mm
11:19 12.6 °C 8.3 °C 1004.8 hPa Oeste 16.4 km/h 27.8 km/h 75% 0.0 mm
11:24 12.6 °C 8.3 °C 1004.8 hPa ONO 17 km/h 35.2 km/h 75% 0.0 mm
11:29 12.6 °C 8.3 °C 1004.8 hPa Oeste 17.2 km/h 35.4 km/h 75% 0.0 mm
11:34 12.6 °C 8.3 °C 1004.8 hPa Oeste 19.3 km/h 37 km/h 75.2% 0.0 mm
11:39 12.6 °C 8.5 °C 1004.8 hPa ONO 20.1 km/h 37.8 km/h 76% 0.0 mm
11:44 12.6 °C 8.6 °C 1004.8 hPa ONO 21.3 km/h 37 km/h 76.7% 0.0 mm
11:49 12.4 °C 8.6 °C 1004.8 hPa ONO 21.7 km/h 32.2 km/h 77.7% 0.3 mm
11:54 12.3 °C 8.8 °C 1005.0 hPa Oeste 17.6 km/h 32.2 km/h 78.9% 0.3 mm
11:59 12.2 °C 8.7 °C 1005.0 hPa ONO 16.1 km/h 30.6 km/h 79.2% 0.3 mm
12:04 12.2 °C 8.8 °C 1005.0 hPa ONO 17.6 km/h 30.9 km/h 79.5% 0.3 mm
12:09 12.2 °C 8.8 °C 1005.0 hPa ONO 18 km/h 32.2 km/h 79.9% 0.3 mm
12:14 12.2 °C 8.8 °C 1004.9 hPa Oeste 17.5 km/h 34.3 km/h 80% 0.5 mm
12:19 12.2 °C 8.8 °C 1004.9 hPa Oeste 17.2 km/h 35.9 km/h 79.4% 0.5 mm
12:24 12.3 °C 8.9 °C 1004.9 hPa Oeste 19.9 km/h 35.4 km/h 79.4% 0.5 mm
12:29 12.3 °C 8.8 °C 1004.7 hPa Oeste 20.9 km/h 31.5 km/h 79.1% 0.5 mm
12:34 12.4 °C 8.8 °C 1004.7 hPa Oeste 19 km/h 32.2 km/h 79% 0.5 mm
12:39 12.4 °C 8.8 °C 1004.7 hPa Oeste 18.4 km/h 25.7 km/h 79% 0.5 mm
12:44 12.4 °C 8.8 °C 1004.6 hPa Oeste 14 km/h 27.8 km/h 78.6% 0.5 mm
12:49 12.6 °C 8.8 °C 1004.6 hPa Oeste 12.2 km/h 33.5 km/h 77.6% 0.2 mm
12:54 12.7 °C 8.7 °C 1004.6 hPa Oeste 15 km/h 33.8 km/h 76.6% 0.2 mm
12:59 12.8 °C 8.7 °C 1004.4 hPa Oeste 16.1 km/h 29.8 km/h 75.7% 0.2 mm
13:04 12.9 °C 8.5 °C 1004.4 hPa Oeste 16.1 km/h 30.6 km/h 74.7% 0.2 mm
13:09 13 °C 8.7 °C 1004.5 hPa Oeste 16.1 km/h 29 km/h 75% 0.2 mm
13:14 13 °C 8.8 °C 1004.5 hPa Oeste 13 km/h 19.3 km/h 75.6% 0.0 mm
13:19 13 °C 8.8 °C 1004.5 hPa Oeste 11.9 km/h 17.7 km/h 75.8% 0.0 mm
13:24 13.1 °C 8.9 °C 1004.5 hPa Oeste 10.1 km/h 16.1 km/h 76% 0.0 mm
13:29 13.1 °C 8.9 °C 1004.5 hPa Oeste 9.5 km/h 22.5 km/h 75.5% 0.0 mm
13:34 13.1 °C 8.6 °C 1004.5 hPa Oeste 10.1 km/h 22.5 km/h 74.3% 0.0 mm
13:39 13.1 °C 8.6 °C 1004.5 hPa Oeste 10.3 km/h 25.6 km/h 74% 0.0 mm
13:44 13.1 °C 8.6 °C 1004.5 hPa ONO 12.3 km/h 25.9 km/h 74% 0.0 mm
13:49 13.1 °C 8.7 °C 1004.5 hPa ONO 13 km/h 25.7 km/h 74.7% 0.0 mm
13:54 12.9 °C 8.7 °C 1004.7 hPa ONO 13 km/h 26.2 km/h 75.5% 0.0 mm
13:59 12.8 °C 8.8 °C 1004.7 hPa Oeste 13 km/h 25.7 km/h 76.5% 0.6 mm
14:04 12.7 °C 8.8 °C 1004.7 hPa Oeste 13 km/h 22.5 km/h 77.1% 0.6 mm
14:09 12.7 °C 8.9 °C 1004.7 hPa Oeste 13 km/h 19.3 km/h 78% 0.6 mm
14:14 12.7 °C 9 °C 1004.6 hPa Oeste 11.6 km/h 19.3 km/h 78% 0.6 mm
14:19 12.8 °C 9 °C 1004.6 hPa Oeste 11.1 km/h 19.3 km/h 77.9% 0.6 mm
14:24 12.8 °C 9 °C 1004.6 hPa Oeste 10.3 km/h 20.4 km/h 77.5% 0.6 mm
14:29 12.9 °C 8.9 °C 1004.4 hPa Oeste 10 km/h 20.9 km/h 77% 0.6 mm
14:34 13 °C 9.1 °C 1004.4 hPa ONO 10.2 km/h 19.3 km/h 77% 0.6 mm
14:39 13.1 °C 9 °C 1004.4 hPa ONO 10.3 km/h 29.6 km/h 76.4% 0.6 mm
14:44 13.1 °C 8.9 °C 1004.4 hPa Oeste 11.7 km/h 29 km/h 76% 0.6 mm
14:49 13.1 °C 8.9 °C 1004.4 hPa Oeste 12.2 km/h 22.5 km/h 76% 0.6 mm
14:54 13.1 °C 8.9 °C 1004.4 hPa Oeste 12 km/h 27.8 km/h 76% 0.6 mm
14:59 13.1 °C 8.9 °C 1004.4 hPa Oeste 11.9 km/h 27.4 km/h 76% 0.6 mm
15:04 13.1 °C 8.9 °C 1004.4 hPa Oeste 13.3 km/h 24.1 km/h 76% 0.0 mm
15:09 13.1 °C 9.1 °C 1004.5 hPa Oeste 13.7 km/h 22.5 km/h 76.7% 0.0 mm
15:14 13.1 °C 9.1 °C 1004.5 hPa Oeste 11.8 km/h 22.2 km/h 76.5% 0.0 mm
15:19 13.1 °C 9 °C 1004.5 hPa Oeste 11.1 km/h 22.5 km/h 76.3% 0.0 mm
15:24 13.1 °C 9.1 °C 1004.5 hPa Oeste 10.3 km/h 20.4 km/h 76.5% 0.0 mm
15:29 13.2 °C 9 °C 1004.5 hPa Oeste 10 km/h 20.9 km/h 76% 0.0 mm
15:34 13.2 °C 9.1 °C 1004.5 hPa Oeste 10 km/h 20.9 km/h 76% 0.0 mm
15:39 13.3 °C 9 °C 1004.6 hPa Oeste 10 km/h 20.9 km/h 75.4% 0.0 mm
15:44 13.3 °C 9 °C 1004.6 hPa Oeste 11.6 km/h 20.9 km/h 75% 0.0 mm
15:49 13.4 °C 9.1 °C 1004.6 hPa Oeste 12.2 km/h 19.3 km/h 75% 0.0 mm
15:54 13.4 °C 9 °C 1004.8 hPa Oeste 10.6 km/h 19.3 km/h 74.4% 0.0 mm
15:59 13.5 °C 8.9 °C 1004.8 hPa ONO 10 km/h 19.3 km/h 74% 0.0 mm
16:04 13.5 °C 9 °C 1004.8 hPa Oeste 10.2 km/h 19.3 km/h 74.2% 0.0 mm
16:09 13.6 °C 9.1 °C 1005.0 hPa Oeste 10.3 km/h 19 km/h 74.1% 0.0 mm
16:14 13.6 °C 9 °C 1005.0 hPa Oeste 9.7 km/h 19.8 km/h 73.7% 0.0 mm
16:19 13.6 °C 8.9 °C 1005.0 hPa Oeste 9.5 km/h 20.9 km/h 73% 0.0 mm
16:24 13.7 °C 8.9 °C 1005.0 hPa OSO 10.1 km/h 20.9 km/h 73% 0.0 mm
16:29 13.7 °C 8.9 °C 1005.0 hPa OSO 10.3 km/h 16.1 km/h 73% 0.0 mm
16:34 13.7 °C 9 °C 1005.0 hPa Oeste 7.5 km/h 14 km/h 73.2% 0.0 mm
16:39 13.7 °C 8.8 °C 1005.2 hPa OSO 6.5 km/h 14.8 km/h 72.1% 0.0 mm
16:44 13.8 °C 8.8 °C 1005.2 hPa OSO 6.5 km/h 14.5 km/h 72% 0.0 mm
16:49 13.7 °C 8.7 °C 1005.2 hPa OSO 6.5 km/h 11.3 km/h 72% 0.0 mm
16:54 13.7 °C 8.6 °C 1005.2 hPa OSO 6.8 km/h 15.6 km/h 71.2% 0.0 mm
16:59 13.8 °C 8.4 °C 1005.2 hPa OSO 6.9 km/h 16.1 km/h 70.1% 0.0 mm
17:04 13.7 °C 8.2 °C 1005.2 hPa OSO 8.3 km/h 18.5 km/h 69.2% 0.0 mm
17:09 13.7 °C 8.1 °C 1005.3 hPa OSO 8.7 km/h 19.3 km/h 69.2% 0.0 mm
17:14 13.7 °C 8.2 °C 1005.3 hPa Oeste 8.7 km/h 17.7 km/h 69.6% 0.0 mm
17:19 13.6 °C 8.2 °C 1005.3 hPa OSO 8.7 km/h 13 km/h 70% 0.0 mm
17:24 13.5 °C 8 °C 1005.5 hPa OSO 7.9 km/h 16.7 km/h 69.6% 0.0 mm
17:29 13.4 °C 7.8 °C 1005.5 hPa Oeste 7.6 km/h 16.7 km/h 69% 0.0 mm
17:34 13.4 °C 7.9 °C 1005.5 hPa Oeste 8.4 km/h 14.5 km/h 69% 0.0 mm
17:39 13.4 °C 7.8 °C 1005.7 hPa ONO 8.7 km/h 13 km/h 69% 0.0 mm
17:44 13.4 °C 7.9 °C 1005.7 hPa Oeste 7.1 km/h 12.9 km/h 69.4% 0.0 mm
17:49 13.4 °C 8.1 °C 1005.7 hPa Oeste 6.5 km/h 8 km/h 70% 0.0 mm
17:54 13.4 °C 8.2 °C 1005.7 hPa Oeste 4.1 km/h 8 km/h 70.8% 0.0 mm
17:59 13.3 °C 8.2 °C 1005.6 hPa Oeste 3.2 km/h 4.8 km/h 71% 0.0 mm
18:04 13.2 °C 8.1 °C 1005.6 hPa Oeste 0.8 km/h   71% 0.0 mm
18:09 13.2 °C 8.1 °C 1005.8 hPa Calm   6.4 km/h 71% 0.0 mm
18:14 13.2 °C 8.1 °C 1005.8 hPa OSO 1.7 km/h 8 km/h 71% 0.0 mm
18:19 13.2 °C 8.1 °C 1005.8 hPa SO 2.2 km/h 8 km/h 71% 0.0 mm
18:24 13.2 °C 8.1 °C 1005.8 hPa SSO 4 km/h 9.5 km/h 71% 0.0 mm
18:29 13.2 °C 8.3 °C 1005.8 hPa Sur 4.7 km/h 11.1 km/h 71.9% 0.0 mm
18:34 13.2 °C 8.3 °C 1005.8 hPa SSO 5.9 km/h 11.3 km/h 72% 0.0 mm
18:39 13.2 °C 8.4 °C 1006.0 hPa Sur 6.5 km/h 11.9 km/h 72.6% 0.0 mm
18:44 13.1 °C 8.7 °C 1006.0 hPa SSO 7.3 km/h 12.2 km/h 74.6% 0.0 mm
18:49 12.9 °C 8.7 °C 1006.0 hPa SSO 7.6 km/h 13 km/h 75.6% 0.0 mm
18:54 12.9 °C 8.8 °C 1006.0 hPa SSO 8.2 km/h 13.7 km/h 76% 0.0 mm
18:59 12.9 °C 8.8 °C 1006.0 hPa SO 8.4 km/h 14.8 km/h 76% 0.0 mm
19:04 12.9 °C 8.8 °C 1006.0 hPa SSO 8.6 km/h 14.5 km/h 76% 0.0 mm
19:09 12.9 °C 8.8 °C 1006.1 hPa SSO 8.7 km/h 13 km/h 76% 0.0 mm
19:14 12.9 °C 8.8 °C 1006.1 hPa SSO 8.5 km/h 12.9 km/h 76.3% 0.0 mm
19:19 12.8 °C 8.9 °C 1006.1 hPa SSO 8.4 km/h 11.3 km/h 77% 0.0 mm
19:24 12.8 °C 8.9 °C 1006.2 hPa SSO 6.9 km/h 13 km/h 77% 0.0 mm
19:29 12.8 °C 8.9 °C 1006.2 hPa SSO 6.5 km/h 12.9 km/h 77% 0.0 mm
19:34 12.7 °C 8.8 °C 1006.2 hPa SSO 7.3 km/h 11.3 km/h 77% 0.0 mm
19:39 12.7 °C 8.8 °C 1006.4 hPa SSO 7.6 km/h 10 km/h 77% 0.0 mm
19:44 12.7 °C 8.9 °C 1006.4 hPa Sur 6.7 km/h 9.7 km/h 77.5% 0.0 mm
19:49 12.7 °C 8.9 °C 1006.4 hPa Sur 6.5 km/h 11.1 km/h 78% 0.0 mm
19:54 12.7 °C 8.9 °C 1006.5 hPa Sur 6.8 km/h 13 km/h 78% 0.0 mm
19:59 12.7 °C 8.9 °C 1006.5 hPa SSO 6.9 km/h 13 km/h 78% 0.0 mm
20:04 12.7 °C 8.8 °C 1006.5 hPa SSO 7.4 km/h 14.8 km/h 77.3% 0.0 mm
20:09 12.7 °C 8.8 °C 1006.7 hPa SSO 7.6 km/h 14.5 km/h 77% 0.0 mm
20:14 12.7 °C 8.8 °C 1006.7 hPa Sur 8.4 km/h 12.9 km/h 77.4% 0.0 mm
20:19 12.7 °C 8.9 °C 1006.7 hPa Sur 8.7 km/h 11.3 km/h 77.5% 0.0 mm
20:24 12.7 °C 8.9 °C 1006.7 hPa SSO 7.9 km/h 11.3 km/h 77.4% 0.0 mm
20:29 12.7 °C 8.8 °C 1006.7 hPa Sur 7.6 km/h 11.1 km/h 77% 0.0 mm
20:34 12.8 °C 8.9 °C 1006.7 hPa Sur 6.3 km/h 11.3 km/h 76.9% 0.0 mm
20:39 12.8 °C 8.7 °C 1007.0 hPa SSO 5.8 km/h 10 km/h 76% 0.0 mm
20:44 12.9 °C 8.8 °C 1007.0 hPa SSO 5 km/h 9.7 km/h 76.2% 0.0 mm
20:49 12.8 °C 8.9 °C 1007.0 hPa SSO 4.7 km/h 8.4 km/h 77% 0.0 mm
20:54 12.7 °C 8.9 °C 1007.2 hPa Sur 4.9 km/h 9.3 km/h 77.4% 0.0 mm
20:59 12.7 °C 8.9 °C 1007.2 hPa Sur 5 km/h 10 km/h 78% 0.0 mm
21:04 12.7 °C 8.9 °C 1007.2 hPa Sur 5.6 km/h 9.7 km/h 78% 0.0 mm
21:09 12.7 °C 8.9 °C 1007.3 hPa SSO 5.8 km/h 9.7 km/h 78% 0.0 mm
21:14 12.7 °C 8.9 °C 1007.3 hPa SSO 5.8 km/h 11.9 km/h 78% 0.0 mm
21:19 12.7 °C 8.9 °C 1007.3 hPa SSO 5.8 km/h 11.3 km/h 78% 0.0 mm
21:24 12.7 °C 8.9 °C 1007.4 hPa SO 7.1 km/h 11.9 km/h 77.3% 0.0 mm
21:29 12.8 °C 8.9 °C 1007.4 hPa SO 7.6 km/h 11.3 km/h 77% 0.0 mm
21:34 12.8 °C 8.7 °C 1007.4 hPa SO 6.3 km/h 11.3 km/h 76% 0.0 mm
21:39 12.9 °C 8.6 °C 1007.6 hPa SSO 5.8 km/h 13 km/h 75.4% 0.0 mm
21:44 12.9 °C 8.6 °C 1007.6 hPa Sur 5.8 km/h 12.9 km/h 75% 0.0 mm
21:49 12.9 °C 8.6 °C 1007.6 hPa Sur 5.8 km/h 11.9 km/h 75% 0.0 mm
21:54 12.9 °C 8.6 °C 1007.8 hPa Sur 6.6 km/h 14.8 km/h 75% 0.0 mm
21:59 12.9 °C 8.6 °C 1007.8 hPa Sur 6.9 km/h 14.8 km/h 75% 0.0 mm
22:04 12.9 °C 8.6 °C 1007.8 hPa Sur 7.4 km/h 11.3 km/h 75% 0.0 mm
22:09 12.9 °C 8.6 °C 1007.9 hPa SO 7.6 km/h 11.3 km/h 75% 0.0 mm
22:14 12.9 °C 8.6 °C 1007.9 hPa SSO 6.7 km/h 11.9 km/h 75% 0.0 mm
22:19 12.9 °C 8.6 °C 1007.9 hPa SSO 6.5 km/h 13 km/h 75% 0.0 mm
22:24 13 °C 8.6 °C 1007.9 hPa SSO 7.3 km/h 13.7 km/h 74.9% 0.0 mm
22:29 13.1 °C 8.5 °C 1007.9 hPa SSO 7.6 km/h 17.2 km/h 74% 0.0 mm
22:34 13.1 °C 8.6 °C 1007.9 hPa SSO 9 km/h 17.7 km/h 74% 0.0 mm
22:39 13.1 °C 8.6 °C 1008.0 hPa SSO 9.5 km/h 16.7 km/h 74% 0.0 mm
22:44 13.1 °C 8.6 °C 1008.0 hPa SSO 9.9 km/h 16.1 km/h 74.1% 0.0 mm
22:49 13.1 °C 8.8 °C 1008.0 hPa SSO 10 km/h 14.5 km/h 75% 0.0 mm
22:54 12.9 °C 8.7 °C 1008.0 hPa SSO 9 km/h 13 km/h 75.3% 0.0 mm
22:59 12.9 °C 8.8 °C 1008.0 hPa SSO 8.7 km/h 12.9 km/h 76% 0.0 mm
23:04 12.8 °C 8.8 °C 1008.0 hPa SSO 7.8 km/h 11.1 km/h 76.4% 0.0 mm
23:09 12.8 °C 8.8 °C 1008.0 hPa Sur 7.6 km/h 11.3 km/h 76.8% 0.0 mm
23:14 12.8 °C 8.9 °C 1008.0 hPa Sur 6.3 km/h 10.3 km/h 77% 0.0 mm
23:19 12.7 °C 8.8 °C 1008.0 hPa Sur 5.8 km/h 11.3 km/h 77% 0.0 mm
23:24 12.7 °C 8.8 °C 1008.1 hPa SSO 6.6 km/h 11.9 km/h 77% 0.0 mm
23:29 12.7 °C 8.8 °C 1008.1 hPa SSO 6.9 km/h 11.3 km/h 77% 0.0 mm
23:34 12.7 °C 8.8 °C 1008.1 hPa SSO 6.1 km/h 9.7 km/h 77% 0.0 mm
23:39 12.7 °C 8.6 °C 1008.2 hPa SSO 5.8 km/h 6.4 km/h 76.2% 0.0 mm
23:44 12.7 °C 8.6 °C 1008.2 hPa SSO 1.5 km/h 1.6 km/h 76% 0.0 mm
23:49 12.7 °C 8.6 °C 1008.2 hPa Calm     76% 0.0 mm
23:54 12.7 °C 8.7 °C 1008.3 hPa Calm     76.8% 0.0 mm
23:59 12.7 °C 8.8 °C 1008.3 hPa Calm     77% 0.0 mm
Murcia-Puente Tocinos, Espa?a
Compliments of Weather Underground - 3.25 mb

La estación de MeteoMurcia.com, publica sus datos en los siguientes proyectos:

Weather Underground PWS IMURCIAP2 Meteoclimatic www.awekas.at

W3Counter
Web Analytics